sensor_id;sensor_type;location;lat;lon;timestamp;temperature;humidity
23120;DHT22;11729;50.836;4.330;2023-02-19T00:01:23;11.60;99.90
23120;DHT22;11729;50.836;4.330;2023-02-19T00:03:54;11.50;99.90
23120;DHT22;11729;50.836;4.330;2023-02-19T00:06:22;11.50;99.90
23120;DHT22;11729;50.836;4.330;2023-02-19T00:08:48;11.40;99.90
23120;DHT22;11729;50.836;4.330;2023-02-19T00:11:25;11.50;99.90
23120;DHT22;11729;50.836;4.330;2023-02-19T00:13:58;11.40;99.90
23120;DHT22;11729;50.836;4.330;2023-02-19T00:16:36;11.40;99.90
23120;DHT22;11729;50.836;4.330;2023-02-19T00:19:03;11.50;99.90
23120;DHT22;11729;50.836;4.330;2023-02-19T00:21:31;11.50;99.90
23120;DHT22;11729;50.836;4.330;2023-02-19T00:24:03;11.60;99.90
23120;DHT22;11729;50.836;4.330;2023-02-19T00:26:29;11.60;99.90
23120;DHT22;11729;50.836;4.330;2023-02-19T00:28:56;11.60;99.90
23120;DHT22;11729;50.836;4.330;2023-02-19T00:31:33;11.80;99.90
23120;DHT22;11729;50.836;4.330;2023-02-19T00:34:04;11.70;99.90
23120;DHT22;11729;50.836;4.330;2023-02-19T00:36:31;11.70;99.90
23120;DHT22;11729;50.836;4.330;2023-02-19T00:38:57;11.60;99.90
23120;DHT22;11729;50.836;4.330;2023-02-19T00:41:23;11.70;99.90
23120;DHT22;11729;50.836;4.330;2023-02-19T00:44:05;11.70;99.90
23120;DHT22;11729;50.836;4.330;2023-02-19T00:46:35;11.70;99.90
23120;DHT22;11729;50.836;4.330;2023-02-19T00:49:01;11.70;99.90
23120;DHT22;11729;50.836;4.330;2023-02-19T00:51:35;11.80;99.90
23120;DHT22;11729;50.836;4.330;2023-02-19T00:54:02;11.70;99.90
23120;DHT22;11729;50.836;4.330;2023-02-19T00:56:34;11.80;99.90
23120;DHT22;11729;50.836;4.330;2023-02-19T00:58:59;11.80;99.90
23120;DHT22;11729;50.836;4.330;2023-02-19T01:01:31;11.80;99.90
23120;DHT22;11729;50.836;4.330;2023-02-19T01:03:57;11.90;99.90
23120;DHT22;11729;50.836;4.330;2023-02-19T01:06:28;11.80;99.90
23120;DHT22;11729;50.836;4.330;2023-02-19T01:08:56;11.70;99.90
23120;DHT22;11729;50.836;4.330;2023-02-19T01:11:21;11.80;99.90
23120;DHT22;11729;50.836;4.330;2023-02-19T01:13:47;11.80;99.90
23120;DHT22;11729;50.836;4.330;2023-02-19T01:16:18;11.90;99.90
23120;DHT22;11729;50.836;4.330;2023-02-19T01:18:47;11.90;99.90
23120;DHT22;11729;50.836;4.330;2023-02-19T01:21:17;12.00;99.90
23120;DHT22;11729;50.836;4.330;2023-02-19T01:23:44;12.00;99.90
23120;DHT22;11729;50.836;4.330;2023-02-19T01:26:20;12.00;99.90
23120;DHT22;11729;50.836;4.330;2023-02-19T01:28:46;11.90;99.90
23120;DHT22;11729;50.836;4.330;2023-02-19T01:31:20;11.90;99.90
23120;DHT22;11729;50.836;4.330;2023-02-19T01:33:50;12.10;99.90
23120;DHT22;11729;50.836;4.330;2023-02-19T01:36:16;12.00;99.90
23120;DHT22;11729;50.836;4.330;2023-02-19T01:38:43;11.90;99.90
23120;DHT22;11729;50.836;4.330;2023-02-19T01:41:14;12.00;99.90
23120;DHT22;11729;50.836;4.330;2023-02-19T01:46:43;12.00;99.90
23120;DHT22;11729;50.836;4.330;2023-02-19T01:49:22;11.90;99.90
23120;DHT22;11729;50.836;4.330;2023-02-19T01:52:38;11.80;99.90
23120;DHT22;11729;50.836;4.330;2023-02-19T01:54:45;11.70;99.90
23120;DHT22;11729;50.836;4.330;2023-02-19T01:57:19;11.80;99.90
23120;DHT22;11729;50.836;4.330;2023-02-19T01:59:47;11.80;99.90
23120;DHT22;11729;50.836;4.330;2023-02-19T02:02:15;11.90;99.90
23120;DHT22;11729;50.836;4.330;2023-02-19T02:04:42;11.90;99.90
23120;DHT22;11729;50.836;4.330;2023-02-19T02:07:10;11.90;99.90
23120;DHT22;11729;50.836;4.330;2023-02-19T02:09:54;11.80;99.90
23120;DHT22;11729;50.836;4.330;2023-02-19T02:12:40;11.60;99.90
23120;DHT22;11729;50.836;4.330;2023-02-19T02:15:06;11.90;99.90
23120;DHT22;11729;50.836;4.330;2023-02-19T02:31:03;11.70;99.90
23120;DHT22;11729;50.836;4.330;2023-02-19T02:36:19;11.60;99.90
23120;DHT22;11729;50.836;4.330;2023-02-19T02:38:47;11.60;99.90
23120;DHT22;11729;50.836;4.330;2023-02-19T02:41:14;11.70;99.90
23120;DHT22;11729;50.836;4.330;2023-02-19T02:43:40;11.60;99.90
23120;DHT22;11729;50.836;4.330;2023-02-19T02:46:10;11.60;99.90
23120;DHT22;11729;50.836;4.330;2023-02-19T02:53:55;11.80;99.90
23120;DHT22;11729;50.836;4.330;2023-02-19T02:56:42;11.60;99.90
23120;DHT22;11729;50.836;4.330;2023-02-19T02:59:11;11.60;99.90
23120;DHT22;11729;50.836;4.330;2023-02-19T03:04:40;11.90;99.90
23120;DHT22;11729;50.836;4.330;2023-02-19T03:07:34;12.10;99.90
23120;DHT22;11729;50.836;4.330;2023-02-19T03:10:02;12.10;99.90
23120;DHT22;11729;50.836;4.330;2023-02-19T03:12:30;11.90;99.90
23120;DHT22;11729;50.836;4.330;2023-02-19T03:15:18;11.90;99.90
23120;DHT22;11729;50.836;4.330;2023-02-19T03:18:26;11.70;99.90
23120;DHT22;11729;50.836;4.330;2023-02-19T03:21:10;11.80;99.90
23120;DHT22;11729;50.836;4.330;2023-02-19T03:23:36;11.70;99.90
23120;DHT22;11729;50.836;4.330;2023-02-19T03:26:20;11.80;99.90
23120;DHT22;11729;50.836;4.330;2023-02-19T03:28:49;11.80;99.90
23120;DHT22;11729;50.836;4.330;2023-02-19T03:31:34;11.80;99.90
23120;DHT22;11729;50.836;4.330;2023-02-19T03:34:05;11.70;99.90
23120;DHT22;11729;50.836;4.330;2023-02-19T03:36:43;11.70;99.90
23120;DHT22;11729;50.836;4.330;2023-02-19T03:39:12;11.70;99.90
23120;DHT22;11729;50.836;4.330;2023-02-19T03:42:04;11.70;99.90
23120;DHT22;11729;50.836;4.330;2023-02-19T03:44:45;11.80;99.90
23120;DHT22;11729;50.836;4.330;2023-02-19T03:47:17;11.80;99.90
23120;DHT22;11729;50.836;4.330;2023-02-19T03:49:45;11.90;99.90
23120;DHT22;11729;50.836;4.330;2023-02-19T03:54:58;11.70;99.90
23120;DHT22;11729;50.836;4.330;2023-02-19T04:00:37;11.70;99.90
23120;DHT22;11729;50.836;4.330;2023-02-19T04:03:18;12.00;99.90
23120;DHT22;11729;50.836;4.330;2023-02-19T04:05:50;11.80;99.90
23120;DHT22;11729;50.836;4.330;2023-02-19T04:08:19;11.80;99.90
23120;DHT22;11729;50.836;4.330;2023-02-19T04:10:46;11.60;99.90
23120;DHT22;11729;50.836;4.330;2023-02-19T04:13:17;11.60;99.90
23120;DHT22;11729;50.836;4.330;2023-02-19T04:15:46;11.60;99.90
23120;DHT22;11729;50.836;4.330;2023-02-19T04:18:16;12.00;99.90
23120;DHT22;11729;50.836;4.330;2023-02-19T04:20:45;11.80;99.90
23120;DHT22;11729;50.836;4.330;2023-02-19T04:23:13;11.80;99.90
23120;DHT22;11729;50.836;4.330;2023-02-19T04:25:43;11.50;99.90
23120;DHT22;11729;50.836;4.330;2023-02-19T04:28:12;11.60;99.90
23120;DHT22;11729;50.836;4.330;2023-02-19T04:30:39;11.80;99.90
23120;DHT22;11729;50.836;4.330;2023-02-19T04:33:04;11.90;99.90
23120;DHT22;11729;50.836;4.330;2023-02-19T04:35:30;11.80;99.90
23120;DHT22;11729;50.836;4.330;2023-02-19T04:37:56;11.80;99.90
23120;DHT22;11729;50.836;4.330;2023-02-19T04:40:21;11.80;99.90
23120;DHT22;11729;50.836;4.330;2023-02-19T04:42:47;11.80;99.90
23120;DHT22;11729;50.836;4.330;2023-02-19T04:45:12;11.90;99.90
23120;DHT22;11729;50.836;4.330;2023-02-19T04:47:38;11.70;99.90
23120;DHT22;11729;50.836;4.330;2023-02-19T04:50:05;11.60;99.90
23120;DHT22;11729;50.836;4.330;2023-02-19T04:52:30;11.70;99.90
23120;DHT22;11729;50.836;4.330;2023-02-19T04:54:57;11.90;99.90
23120;DHT22;11729;50.836;4.330;2023-02-19T04:57:23;12.10;99.90
23120;DHT22;11729;50.836;4.330;2023-02-19T04:59:50;12.10;99.90
23120;DHT22;11729;50.836;4.330;2023-02-19T05:02:17;12.10;99.90
23120;DHT22;11729;50.836;4.330;2023-02-19T05:04:42;11.90;99.90
23120;DHT22;11729;50.836;4.330;2023-02-19T05:07:08;11.90;99.90
23120;DHT22;11729;50.836;4.330;2023-02-19T05:09:34;11.80;99.90
23120;DHT22;11729;50.836;4.330;2023-02-19T05:11:59;11.90;99.90
23120;DHT22;11729;50.836;4.330;2023-02-19T05:14:25;11.80;99.90
23120;DHT22;11729;50.836;4.330;2023-02-19T05:16:50;11.80;99.90
23120;DHT22;11729;50.836;4.330;2023-02-19T05:19:16;12.00;99.90
23120;DHT22;11729;50.836;4.330;2023-02-19T05:21:41;11.90;99.90
23120;DHT22;11729;50.836;4.330;2023-02-19T05:24:07;12.10;99.90
23120;DHT22;11729;50.836;4.330;2023-02-19T05:26:33;12.10;99.90
23120;DHT22;11729;50.836;4.330;2023-02-19T05:28:59;12.20;99.90
23120;DHT22;11729;50.836;4.330;2023-02-19T05:31:25;12.20;99.90
23120;DHT22;11729;50.836;4.330;2023-02-19T05:33:50;11.90;99.90
23120;DHT22;11729;50.836;4.330;2023-02-19T05:36:19;11.80;99.90
23120;DHT22;11729;50.836;4.330;2023-02-19T05:38:45;11.60;99.90
23120;DHT22;11729;50.836;4.330;2023-02-19T05:41:17;11.60;99.90
23120;DHT22;11729;50.836;4.330;2023-02-19T05:43:44;11.50;99.90
23120;DHT22;11729;50.836;4.330;2023-02-19T05:46:11;11.70;99.90
23120;DHT22;11729;50.836;4.330;2023-02-19T05:48:38;11.80;99.90
23120;DHT22;11729;50.836;4.330;2023-02-19T05:51:06;11.70;99.90
23120;DHT22;11729;50.836;4.330;2023-02-19T05:53:32;11.80;99.90
23120;DHT22;11729;50.836;4.330;2023-02-19T05:55:58;11.90;99.90
23120;DHT22;11729;50.836;4.330;2023-02-19T05:58:24;11.80;99.90
23120;DHT22;11729;50.836;4.330;2023-02-19T06:00:49;11.70;99.90
23120;DHT22;11729;50.836;4.330;2023-02-19T06:03:15;11.60;99.90
23120;DHT22;11729;50.836;4.330;2023-02-19T06:05:40;11.60;99.90
23120;DHT22;11729;50.836;4.330;2023-02-19T06:08:06;11.60;99.90
23120;DHT22;11729;50.836;4.330;2023-02-19T06:10:33;11.60;99.90
23120;DHT22;11729;50.836;4.330;2023-02-19T06:13:00;11.60;99.90
23120;DHT22;11729;50.836;4.330;2023-02-19T06:15:26;11.70;99.90
23120;DHT22;11729;50.836;4.330;2023-02-19T06:17:54;11.80;99.90
23120;DHT22;11729;50.836;4.330;2023-02-19T06:20:20;11.90;99.90
23120;DHT22;11729;50.836;4.330;2023-02-19T06:22:48;11.90;99.90
23120;DHT22;11729;50.836;4.330;2023-02-19T06:25:14;11.80;99.90
23120;DHT22;11729;50.836;4.330;2023-02-19T06:27:40;11.70;99.90
23120;DHT22;11729;50.836;4.330;2023-02-19T06:30:07;11.80;99.90
23120;DHT22;11729;50.836;4.330;2023-02-19T06:32:32;11.70;99.90
23120;DHT22;11729;50.836;4.330;2023-02-19T06:34:58;11.50;99.90
23120;DHT22;11729;50.836;4.330;2023-02-19T06:37:24;11.50;99.90
23120;DHT22;11729;50.836;4.330;2023-02-19T06:39:49;11.70;99.90
23120;DHT22;11729;50.836;4.330;2023-02-19T06:42:15;11.60;99.90
23120;DHT22;11729;50.836;4.330;2023-02-19T06:44:41;11.50;99.90
23120;DHT22;11729;50.836;4.330;2023-02-19T06:47:06;11.80;99.90
23120;DHT22;11729;50.836;4.330;2023-02-19T06:49:32;11.80;99.90
23120;DHT22;11729;50.836;4.330;2023-02-19T06:51:57;11.60;99.90
23120;DHT22;11729;50.836;4.330;2023-02-19T06:54:25;11.70;99.90
23120;DHT22;11729;50.836;4.330;2023-02-19T06:56:51;11.90;99.90
23120;DHT22;11729;50.836;4.330;2023-02-19T06:59:16;11.80;99.90
23120;DHT22;11729;50.836;4.330;2023-02-19T07:01:43;11.60;99.90
23120;DHT22;11729;50.836;4.330;2023-02-19T07:04:09;11.60;99.90
23120;DHT22;11729;50.836;4.330;2023-02-19T07:06:35;11.50;99.90
23120;DHT22;11729;50.836;4.330;2023-02-19T07:09:02;11.50;99.90
23120;DHT22;11729;50.836;4.330;2023-02-19T07:11:31;11.50;99.90
23120;DHT22;11729;50.836;4.330;2023-02-19T07:13:58;11.40;99.90
23120;DHT22;11729;50.836;4.330;2023-02-19T07:16:25;11.50;99.90
23120;DHT22;11729;50.836;4.330;2023-02-19T07:18:52;11.70;99.90
23120;DHT22;11729;50.836;4.330;2023-02-19T07:21:18;11.60;99.90
23120;DHT22;11729;50.836;4.330;2023-02-19T07:23:44;11.80;99.90
23120;DHT22;11729;50.836;4.330;2023-02-19T07:26:15;11.80;99.90
23120;DHT22;11729;50.836;4.330;2023-02-19T07:28:42;11.70;99.90
23120;DHT22;11729;50.836;4.330;2023-02-19T07:31:08;11.60;99.90
23120;DHT22;11729;50.836;4.330;2023-02-19T07:33:33;11.60;99.90
23120;DHT22;11729;50.836;4.330;2023-02-19T07:35:59;11.70;99.90
23120;DHT22;11729;50.836;4.330;2023-02-19T07:38:25;12.00;99.90
23120;DHT22;11729;50.836;4.330;2023-02-19T07:40:52;12.00;99.90
23120;DHT22;11729;50.836;4.330;2023-02-19T07:43:18;12.20;99.90
23120;DHT22;11729;50.836;4.330;2023-02-19T07:45:44;12.20;99.90
23120;DHT22;11729;50.836;4.330;2023-02-19T07:48:09;12.20;99.90
23120;DHT22;11729;50.836;4.330;2023-02-19T07:50:35;12.10;99.90
23120;DHT22;11729;50.836;4.330;2023-02-19T07:53:01;12.10;99.90
23120;DHT22;11729;50.836;4.330;2023-02-19T07:55:26;12.10;99.90
23120;DHT22;11729;50.836;4.330;2023-02-19T07:57:52;12.30;99.90
23120;DHT22;11729;50.836;4.330;2023-02-19T08:00:17;12.20;99.90
23120;DHT22;11729;50.836;4.330;2023-02-19T08:02:44;12.20;99.90
23120;DHT22;11729;50.836;4.330;2023-02-19T08:05:26;12.20;99.90
23120;DHT22;11729;50.836;4.330;2023-02-19T08:07:53;12.10;99.90
23120;DHT22;11729;50.836;4.330;2023-02-19T08:10:18;12.20;99.90
23120;DHT22;11729;50.836;4.330;2023-02-19T08:13:03;12.40;99.90
23120;DHT22;11729;50.836;4.330;2023-02-19T08:15:45;12.30;99.90
23120;DHT22;11729;50.836;4.330;2023-02-19T08:18:11;12.30;99.90
23120;DHT22;11729;50.836;4.330;2023-02-19T08:20:37;12.40;99.90
23120;DHT22;11729;50.836;4.330;2023-02-19T08:23:03;12.60;99.90
23120;DHT22;11729;50.836;4.330;2023-02-19T08:25:29;12.50;99.90
23120;DHT22;11729;50.836;4.330;2023-02-19T08:27:55;12.50;99.90
23120;DHT22;11729;50.836;4.330;2023-02-19T08:30:21;12.70;99.90
23120;DHT22;11729;50.836;4.330;2023-02-19T08:32:47;12.70;99.90
23120;DHT22;11729;50.836;4.330;2023-02-19T08:35:12;12.90;99.90
23120;DHT22;11729;50.836;4.330;2023-02-19T08:37:38;13.20;99.90
23120;DHT22;11729;50.836;4.330;2023-02-19T08:40:04;13.10;99.90
23120;DHT22;11729;50.836;4.330;2023-02-19T08:42:29;13.30;99.90
23120;DHT22;11729;50.836;4.330;2023-02-19T08:44:58;13.40;99.90
23120;DHT22;11729;50.836;4.330;2023-02-19T08:47:24;13.10;99.90
23120;DHT22;11729;50.836;4.330;2023-02-19T08:49:49;12.70;99.90
23120;DHT22;11729;50.836;4.330;2023-02-19T08:52:15;12.60;99.90
23120;DHT22;11729;50.836;4.330;2023-02-19T08:54:41;12.70;99.90
23120;DHT22;11729;50.836;4.330;2023-02-19T08:57:07;12.80;99.90
23120;DHT22;11729;50.836;4.330;2023-02-19T08:59:32;12.90;99.90
23120;DHT22;11729;50.836;4.330;2023-02-19T09:01:58;12.60;99.90
23120;DHT22;11729;50.836;4.330;2023-02-19T09:04:24;12.50;99.90
23120;DHT22;11729;50.836;4.330;2023-02-19T09:06:49;12.70;99.90
23120;DHT22;11729;50.836;4.330;2023-02-19T09:09:16;12.70;99.90
23120;DHT22;11729;50.836;4.330;2023-02-19T09:11:42;12.60;99.90
23120;DHT22;11729;50.836;4.330;2023-02-19T09:14:07;12.40;99.90
23120;DHT22;11729;50.836;4.330;2023-02-19T09:16:34;12.50;99.90
23120;DHT22;11729;50.836;4.330;2023-02-19T09:19:00;12.30;99.90
23120;DHT22;11729;50.836;4.330;2023-02-19T09:21:26;12.40;99.90
23120;DHT22;11729;50.836;4.330;2023-02-19T09:23:51;12.60;99.90
23120;DHT22;11729;50.836;4.330;2023-02-19T09:26:17;12.60;99.90
23120;DHT22;11729;50.836;4.330;2023-02-19T09:28:42;12.40;99.90
23120;DHT22;11729;50.836;4.330;2023-02-19T09:31:11;12.70;99.90
23120;DHT22;11729;50.836;4.330;2023-02-19T09:33:37;12.70;99.90
23120;DHT22;11729;50.836;4.330;2023-02-19T09:36:03;12.70;99.90
23120;DHT22;11729;50.836;4.330;2023-02-19T09:38:29;12.80;99.90
23120;DHT22;11729;50.836;4.330;2023-02-19T09:40:58;12.80;99.90
23120;DHT22;11729;50.836;4.330;2023-02-19T09:43:31;12.60;99.90
23120;DHT22;11729;50.836;4.330;2023-02-19T09:46:21;12.80;99.90
23120;DHT22;11729;50.836;4.330;2023-02-19T09:48:48;12.90;99.90
23120;DHT22;11729;50.836;4.330;2023-02-19T09:51:15;13.10;99.90
23120;DHT22;11729;50.836;4.330;2023-02-19T09:53:43;13.10;99.90
23120;DHT22;11729;50.836;4.330;2023-02-19T09:56:10;13.30;99.90
23120;DHT22;11729;50.836;4.330;2023-02-19T09:58:45;13.60;99.90
23120;DHT22;11729;50.836;4.330;2023-02-19T10:01:12;13.60;99.90
23120;DHT22;11729;50.836;4.330;2023-02-19T10:03:40;13.50;99.90
23120;DHT22;11729;50.836;4.330;2023-02-19T10:06:17;13.40;99.90
23120;DHT22;11729;50.836;4.330;2023-02-19T10:08:46;13.40;99.90
23120;DHT22;11729;50.836;4.330;2023-02-19T10:11:12;13.50;99.90
23120;DHT22;11729;50.836;4.330;2023-02-19T10:16:51;13.50;99.90
23120;DHT22;11729;50.836;4.330;2023-02-19T10:19:17;13.70;99.90
23120;DHT22;11729;50.836;4.330;2023-02-19T10:21:43;13.80;99.90
23120;DHT22;11729;50.836;4.330;2023-02-19T10:24:22;13.70;99.90
23120;DHT22;11729;50.836;4.330;2023-02-19T10:26:49;13.60;99.90
23120;DHT22;11729;50.836;4.330;2023-02-19T10:29:15;13.60;99.90
23120;DHT22;11729;50.836;4.330;2023-02-19T10:31:40;13.60;99.90
23120;DHT22;11729;50.836;4.330;2023-02-19T10:34:24;13.60;99.90
23120;DHT22;11729;50.836;4.330;2023-02-19T10:36:51;13.70;99.90
23120;DHT22;11729;50.836;4.330;2023-02-19T10:41:52;13.70;99.90
23120;DHT22;11729;50.836;4.330;2023-02-19T10:44:23;14.00;99.90
23120;DHT22;11729;50.836;4.330;2023-02-19T10:46:53;13.90;99.90
23120;DHT22;11729;50.836;4.330;2023-02-19T10:49:27;13.60;99.90
23120;DHT22;11729;50.836;4.330;2023-02-19T10:51:56;13.60;99.90
23120;DHT22;11729;50.836;4.330;2023-02-19T10:54:31;13.60;99.90
23120;DHT22;11729;50.836;4.330;2023-02-19T11:02:26;13.60;99.90
23120;DHT22;11729;50.836;4.330;2023-02-19T11:07:53;13.60;99.90
23120;DHT22;11729;50.836;4.330;2023-02-19T11:10:37;13.60;99.90
23120;DHT22;11729;50.836;4.330;2023-02-19T11:13:05;13.80;99.90
23120;DHT22;11729;50.836;4.330;2023-02-19T11:15:36;14.20;99.90
23120;DHT22;11729;50.836;4.330;2023-02-19T11:20:45;14.10;99.90
23120;DHT22;11729;50.836;4.330;2023-02-19T11:23:16;14.10;99.90
23120;DHT22;11729;50.836;4.330;2023-02-19T11:25:47;14.00;99.90
23120;DHT22;11729;50.836;4.330;2023-02-19T11:28:38;13.90;99.90
23120;DHT22;11729;50.836;4.330;2023-02-19T11:36:45;14.10;99.90
23120;DHT22;11729;50.836;4.330;2023-02-19T11:44:37;13.90;99.90
23120;DHT22;11729;50.836;4.330;2023-02-19T11:47:54;13.80;99.90
23120;DHT22;11729;50.836;4.330;2023-02-19T11:53:24;13.30;99.90
23120;DHT22;11729;50.836;4.330;2023-02-19T11:59:06;13.30;99.90
23120;DHT22;11729;50.836;4.330;2023-02-19T12:01:57;13.40;99.90
23120;DHT22;11729;50.836;4.330;2023-02-19T12:04:47;13.60;99.90
23120;DHT22;11729;50.836;4.330;2023-02-19T12:07:26;13.70;99.90
23120;DHT22;11729;50.836;4.330;2023-02-19T12:15:54;13.10;99.90
23120;DHT22;11729;50.836;4.330;2023-02-19T12:18:37;13.20;99.90
23120;DHT22;11729;50.836;4.330;2023-02-19T12:23:54;13.60;99.90
23120;DHT22;11729;50.836;4.330;2023-02-19T12:26:35;13.60;99.90
23120;DHT22;11729;50.836;4.330;2023-02-19T12:42:49;12.80;99.90
23120;DHT22;11729;50.836;4.330;2023-02-19T12:45:28;12.70;99.90
23120;DHT22;11729;50.836;4.330;2023-02-19T12:50:30;13.10;99.90
23120;DHT22;11729;50.836;4.330;2023-02-19T12:53:01;13.10;99.90
23120;DHT22;11729;50.836;4.330;2023-02-19T12:55:33;13.10;99.90
23120;DHT22;11729;50.836;4.330;2023-02-19T12:58:03;13.10;99.90
23120;DHT22;11729;50.836;4.330;2023-02-19T13:01:02;13.50;99.90
23120;DHT22;11729;50.836;4.330;2023-02-19T13:03:33;13.50;99.90
23120;DHT22;11729;50.836;4.330;2023-02-19T13:06:05;13.30;99.90
23120;DHT22;11729;50.836;4.330;2023-02-19T13:08:42;13.10;99.90
23120;DHT22;11729;50.836;4.330;2023-02-19T13:11:15;13.00;99.90
23120;DHT22;11729;50.836;4.330;2023-02-19T13:13:55;13.00;99.90
23120;DHT22;11729;50.836;4.330;2023-02-19T13:16:23;12.90;99.90
23120;DHT22;11729;50.836;4.330;2023-02-19T13:18:55;12.70;99.90
23120;DHT22;11729;50.836;4.330;2023-02-19T13:21:25;12.90;99.90
23120;DHT22;11729;50.836;4.330;2023-02-19T13:24:19;12.90;99.90
23120;DHT22;11729;50.836;4.330;2023-02-19T13:37:09;12.90;99.90
23120;DHT22;11729;50.836;4.330;2023-02-19T13:39:35;12.70;99.90
23120;DHT22;11729;50.836;4.330;2023-02-19T13:42:02;12.50;99.90
23120;DHT22;11729;50.836;4.330;2023-02-19T13:44:32;12.50;99.90
23120;DHT22;11729;50.836;4.330;2023-02-19T13:46:58;12.50;99.90
23120;DHT22;11729;50.836;4.330;2023-02-19T13:52:01;12.70;99.90
23120;DHT22;11729;50.836;4.330;2023-02-19T13:54:32;12.70;99.90
23120;DHT22;11729;50.836;4.330;2023-02-19T13:59:52;12.60;99.90
23120;DHT22;11729;50.836;4.330;2023-02-19T14:02:33;12.50;99.90
23120;DHT22;11729;50.836;4.330;2023-02-19T14:05:05;12.40;99.90
23120;DHT22;11729;50.836;4.330;2023-02-19T14:07:55;12.80;99.90
23120;DHT22;11729;50.836;4.330;2023-02-19T14:13:54;12.60;99.90
23120;DHT22;11729;50.836;4.330;2023-02-19T14:19:02;12.60;99.90
23120;DHT22;11729;50.836;4.330;2023-02-19T14:21:37;12.60;99.90
23120;DHT22;11729;50.836;4.330;2023-02-19T14:24:03;12.60;99.90
23120;DHT22;11729;50.836;4.330;2023-02-19T14:26:32;12.70;99.90
23120;DHT22;11729;50.836;4.330;2023-02-19T14:29:02;12.90;99.90
23120;DHT22;11729;50.836;4.330;2023-02-19T14:31:33;12.90;99.90
23120;DHT22;11729;50.836;4.330;2023-02-19T14:34:12;12.60;99.90
23120;DHT22;11729;50.836;4.330;2023-02-19T14:39:38;12.50;99.90
23120;DHT22;11729;50.836;4.330;2023-02-19T14:42:07;12.40;99.90
23120;DHT22;11729;50.836;4.330;2023-02-19T14:47:17;12.30;99.90
23120;DHT22;11729;50.836;4.330;2023-02-19T14:50:02;12.20;99.90
23120;DHT22;11729;50.836;4.330;2023-02-19T14:52:36;12.20;99.90
23120;DHT22;11729;50.836;4.330;2023-02-19T14:57:38;12.30;99.90
23120;DHT22;11729;50.836;4.330;2023-02-19T15:00:28;12.40;99.90
23120;DHT22;11729;50.836;4.330;2023-02-19T15:02:56;12.40;99.90
23120;DHT22;11729;50.836;4.330;2023-02-19T15:05:29;12.60;99.90
23120;DHT22;11729;50.836;4.330;2023-02-19T15:07:58;12.50;99.90
23120;DHT22;11729;50.836;4.330;2023-02-19T15:10:26;12.60;99.90
23120;DHT22;11729;50.836;4.330;2023-02-19T15:12:59;12.70;99.90
23120;DHT22;11729;50.836;4.330;2023-02-19T15:15:28;12.70;99.90
23120;DHT22;11729;50.836;4.330;2023-02-19T15:17:55;12.70;99.90
23120;DHT22;11729;50.836;4.330;2023-02-19T15:20:24;12.80;99.90
23120;DHT22;11729;50.836;4.330;2023-02-19T15:22:51;12.90;99.90
23120;DHT22;11729;50.836;4.330;2023-02-19T15:25:23;12.90;99.90
23120;DHT22;11729;50.836;4.330;2023-02-19T15:27:50;12.70;99.90
23120;DHT22;11729;50.836;4.330;2023-02-19T15:30:27;12.60;99.90
23120;DHT22;11729;50.836;4.330;2023-02-19T15:32:58;12.60;99.90
23120;DHT22;11729;50.836;4.330;2023-02-19T15:35:29;12.50;99.90
23120;DHT22;11729;50.836;4.330;2023-02-19T15:37:57;12.20;99.90
23120;DHT22;11729;50.836;4.330;2023-02-19T15:40:27;12.10;99.90
23120;DHT22;11729;50.836;4.330;2023-02-19T15:42:55;12.10;99.90
23120;DHT22;11729;50.836;4.330;2023-02-19T15:45:25;12.00;99.90
23120;DHT22;11729;50.836;4.330;2023-02-19T15:47:56;11.80;99.90
23120;DHT22;11729;50.836;4.330;2023-02-19T15:50:29;11.90;99.90
23120;DHT22;11729;50.836;4.330;2023-02-19T15:52:57;11.70;99.90
23120;DHT22;11729;50.836;4.330;2023-02-19T15:55:27;11.70;99.90
23120;DHT22;11729;50.836;4.330;2023-02-19T15:58:03;11.80;99.90
23120;DHT22;11729;50.836;4.330;2023-02-19T16:01:00;11.60;99.90
23120;DHT22;11729;50.836;4.330;2023-02-19T16:03:27;11.70;99.90
23120;DHT22;11729;50.836;4.330;2023-02-19T16:06:01;11.80;99.90
23120;DHT22;11729;50.836;4.330;2023-02-19T16:08:33;11.80;99.90
23120;DHT22;11729;50.836;4.330;2023-02-19T16:11:02;12.10;99.90
23120;DHT22;11729;50.836;4.330;2023-02-19T16:13:30;12.10;99.90
23120;DHT22;11729;50.836;4.330;2023-02-19T16:16:02;11.70;99.90
23120;DHT22;11729;50.836;4.330;2023-02-19T16:18:30;11.60;99.90
23120;DHT22;11729;50.836;4.330;2023-02-19T16:20:56;11.60;99.90
23120;DHT22;11729;50.836;4.330;2023-02-19T16:23:22;11.70;99.90
23120;DHT22;11729;50.836;4.330;2023-02-19T16:25:57;11.90;99.90
23120;DHT22;11729;50.836;4.330;2023-02-19T16:28:24;11.80;99.90
23120;DHT22;11729;50.836;4.330;2023-02-19T16:31:03;11.60;99.90
23120;DHT22;11729;50.836;4.330;2023-02-19T16:41:28;11.30;99.90
23120;DHT22;11729;50.836;4.330;2023-02-19T16:43:53;11.40;99.90
23120;DHT22;11729;50.836;4.330;2023-02-19T16:46:19;11.40;99.90
23120;DHT22;11729;50.836;4.330;2023-02-19T16:48:45;11.40;99.90
23120;DHT22;11729;50.836;4.330;2023-02-19T16:51:25;11.50;99.90
23120;DHT22;11729;50.836;4.330;2023-02-19T16:53:50;11.60;99.90
23120;DHT22;11729;50.836;4.330;2023-02-19T16:56:19;11.60;99.90
23120;DHT22;11729;50.836;4.330;2023-02-19T16:58:48;11.60;99.90
23120;DHT22;11729;50.836;4.330;2023-02-19T17:01:14;11.40;99.90
23120;DHT22;11729;50.836;4.330;2023-02-19T17:03:39;11.30;99.90
23120;DHT22;11729;50.836;4.330;2023-02-19T17:06:05;11.30;99.90
23120;DHT22;11729;50.836;4.330;2023-02-19T17:08:40;11.30;99.90
23120;DHT22;11729;50.836;4.330;2023-02-19T17:11:10;11.40;99.90
23120;DHT22;11729;50.836;4.330;2023-02-19T17:13:37;11.70;99.90
23120;DHT22;11729;50.836;4.330;2023-02-19T17:16:03;11.60;99.90
23120;DHT22;11729;50.836;4.330;2023-02-19T17:18:28;11.50;99.90
23120;DHT22;11729;50.836;4.330;2023-02-19T17:21:15;11.40;99.90
23120;DHT22;11729;50.836;4.330;2023-02-19T17:23:41;11.20;99.90
23120;DHT22;11729;50.836;4.330;2023-02-19T17:26:13;11.10;99.90
23120;DHT22;11729;50.836;4.330;2023-02-19T17:28:38;11.10;99.90
23120;DHT22;11729;50.836;4.330;2023-02-19T17:31:04;11.20;99.90
23120;DHT22;11729;50.836;4.330;2023-02-19T17:33:29;11.10;99.90
23120;DHT22;11729;50.836;4.330;2023-02-19T17:35:55;11.00;99.90
23120;DHT22;11729;50.836;4.330;2023-02-19T17:38:21;10.90;99.90
23120;DHT22;11729;50.836;4.330;2023-02-19T17:40:46;11.10;99.90
23120;DHT22;11729;50.836;4.330;2023-02-19T17:43:13;11.50;99.90
23120;DHT22;11729;50.836;4.330;2023-02-19T17:45:39;11.30;99.90
23120;DHT22;11729;50.836;4.330;2023-02-19T17:48:04;11.40;99.90
23120;DHT22;11729;50.836;4.330;2023-02-19T17:50:31;11.10;99.90
23120;DHT22;11729;50.836;4.330;2023-02-19T17:52:57;11.00;99.90
23120;DHT22;11729;50.836;4.330;2023-02-19T17:55:23;11.00;99.90
23120;DHT22;11729;50.836;4.330;2023-02-19T17:57:50;11.00;99.90